Keesler Air Force Base
KBIX : now visible

Airfield :











YOU CAN JOIN US ON...

 
LOGIN :

Register | Disclaimer

   EN    FR    IT 

 









Legend :    VFR   Marginal VFR   IFR   Intensive IFR   Very Intensive IFR
Visi :
Ceiling :
>= 8 km
>= 3000ft
5 to 8 km
1000 to 3000 ft
1500m to 5 km
500 to 1000 ft
800 to 1500m
200 to 500 ft
< 800m
< 200 ft
Symbols :   Thunderstorms  Fog  Heavy snow  Heavy precipitations  Wind > 20 kt






- Airport Elevation : 33 ft


KBIX - Keesler Air Force Base

CURRENT METAR :
  • 250455Z AUTO 00000KT 10SM CLR 26/24 A2992 RMK AO2 SLP135 T02580236

EXPIRED METARs :
  • 250355Z AUTO 36003KT 10SM CLR 26/24 A2991 RMK AO2 SLP131 T02590239
  • 250255Z AUTO 03004KT 10SM CLR 26/24 A2988 RMK AO2 SLP121 T02600240 50002
  • 250155Z AUTO 35003KT 10SM CLR 26/24 A2990 RMK AO2 SLP128 T02610241
  • 250055Z AUTO 00000KT 10SM CLR 26/24 A2988 RMK AO2 SLP121 T02610237

TAF TAF KBIX
Valid from the 25 at 02:00 until the 26 at 08:00 UTC


250200Z 2502/2608 VRB06KT 9999 SCT100 BKN200 QNH2990INS
TEMPO 2509/2512 6000 -SHRA SCT003 BKN020
BECMG 2517/2518 21009KT 9999 VCTS FEW035CB SCT050 QNH2994INS
TEMPO 2518/2521 22012G18KT 6000 -TSRA SCT020CB BKN035
BECMG 2521/2522 23008KT 9999 NSW SCT035 QNH2989INS TX34/2518Z TN24/2511Z LAST NOA MDS AFT 2504 NEXT 2510
KZHU FIR / North America



MET'MAP, your aeronautical weather chart ! - Copyright ORBIFLY December 2007 - Disclaimer

ORBIFLY MET'MAP TEAM :

Programming & Development : Alexandra Zaïnal
Original concept : Baudouin d'Aumeries
Technical & hardware support : Manuel Goepfert
Assistance : Marc-Olivier Méhu




SOURCES & CREDITS :

   NOAA       Earth
Advisory